createdAt,value
2023-05-07T00:01:07.322Z,29.50
2023-05-07T00:03:34.202Z,28.50
2023-05-07T00:06:00.860Z,27.88
2023-05-07T00:08:27.243Z,28.95
2023-05-07T00:10:53.916Z,31.13
2023-05-07T00:13:20.454Z,31.70
2023-05-07T00:15:46.883Z,32.28
2023-05-07T00:18:13.267Z,31.95
2023-05-07T00:20:39.687Z,28.17
2023-05-07T00:23:06.151Z,27.08
2023-05-07T00:25:32.524Z,30.02
2023-05-07T00:28:03.629Z,29.23
2023-05-07T00:30:30.182Z,29.38
2023-05-07T00:32:56.674Z,30.40
2023-05-07T00:35:23.180Z,28.02
2023-05-07T00:37:49.928Z,32.80
2023-05-07T00:40:16.304Z,28.38
2023-05-07T00:42:42.689Z,28.27
2023-05-07T00:45:10.047Z,26.83
2023-05-07T00:47:36.581Z,26.85
2023-05-07T00:50:04.354Z,28.70
2023-05-07T00:52:31.130Z,29.05
2023-05-07T00:54:57.757Z,28.35
2023-05-07T00:57:25.056Z,31.33
2023-05-07T00:59:52.621Z,29.50
2023-05-07T01:02:19.068Z,32.50
2023-05-07T01:04:45.585Z,29.52
2023-05-07T01:07:12.329Z,28.95
2023-05-07T01:09:38.780Z,28.02
2023-05-07T01:12:05.493Z,28.88
2023-05-07T01:14:33.906Z,29.33
2023-05-07T01:17:00.315Z,30.05
2023-05-07T01:19:28.009Z,29.15
2023-05-07T01:22:00.372Z,30.45
2023-05-07T01:24:26.751Z,27.92
2023-05-07T01:26:53.229Z,27.08
2023-05-07T01:29:19.600Z,26.55
2023-05-07T01:31:46.298Z,27.33
2023-05-07T01:34:14.123Z,30.65
2023-05-07T01:36:41.062Z,27.38
2023-05-07T01:39:07.690Z,29.40
2023-05-07T01:41:34.098Z,28.90
2023-05-07T01:44:00.666Z,30.15
2023-05-07T01:46:27.513Z,29.98
2023-05-07T01:48:54.790Z,27.13
2023-05-07T01:51:22.378Z,28.20
2023-05-07T01:53:51.670Z,29.65
2023-05-07T01:56:19.050Z,29.63
2023-05-07T01:58:46.959Z,29.67
2023-05-07T02:01:14.325Z,30.02
2023-05-07T02:03:41.000Z,32.70
2023-05-07T02:06:07.805Z,29.30
2023-05-07T02:08:34.271Z,29.83
2023-05-07T02:11:00.739Z,30.20
2023-05-07T02:13:30.438Z,30.30
2023-05-07T02:15:56.963Z,31.48
2023-05-07T02:18:23.385Z,31.90
2023-05-07T02:20:49.754Z,30.48
2023-05-07T02:23:16.146Z,28.92
2023-05-07T02:25:42.520Z,29.88
2023-05-07T02:28:09.015Z,30.25
2023-05-07T02:30:35.470Z,29.75
2023-05-07T02:33:01.892Z,31.02
2023-05-07T02:35:28.327Z,29.55
2023-05-07T02:37:54.727Z,30.70
2023-05-07T02:40:21.205Z,33.13
2023-05-07T02:42:47.987Z,32.42
2023-05-07T02:45:15.377Z,28.60
2023-05-07T02:47:41.798Z,34.05
2023-05-07T02:50:08.694Z,29.10
2023-05-07T02:52:35.296Z,31.33
2023-05-07T02:55:01.678Z,30.65
2023-05-07T02:57:28.146Z,32.47
2023-05-07T02:59:54.493Z,34.42
2023-05-07T03:02:21.126Z,32.33
2023-05-07T03:04:47.535Z,34.95
2023-05-07T03:07:13.903Z,35.13
2023-05-07T03:09:40.470Z,33.38
2023-05-07T03:12:07.131Z,33.13
2023-05-07T03:14:33.493Z,36.28
2023-05-07T03:16:59.917Z,37.75
2023-05-07T03:19:26.425Z,36.05
2023-05-07T03:21:52.811Z,39.40
2023-05-07T03:24:19.212Z,37.83
2023-05-07T03:26:45.656Z,35.97
2023-05-07T03:29:12.060Z,37.05
2023-05-07T03:31:38.627Z,37.35
2023-05-07T03:34:05.123Z,38.42
2023-05-07T03:36:31.601Z,36.33
2023-05-07T03:38:58.026Z,38.25
2023-05-07T03:41:24.488Z,39.15
2023-05-07T03:43:50.855Z,38.20
2023-05-07T03:46:17.316Z,43.28
2023-05-07T03:48:43.677Z,38.35
2023-05-07T03:51:10.046Z,40.63
2023-05-07T03:53:36.431Z,40.50
2023-05-07T03:56:02.847Z,40.85
2023-05-07T03:58:29.325Z,43.20
2023-05-07T04:00:55.712Z,41.10
2023-05-07T04:03:22.255Z,43.25
2023-05-07T04:05:48.781Z,42.05
2023-05-07T04:08:15.184Z,42.33
2023-05-07T04:10:41.633Z,42.88
2023-05-07T04:13:08.122Z,43.15
2023-05-07T04:15:34.502Z,42.45
2023-05-07T04:18:01.020Z,42.92
2023-05-07T04:20:27.531Z,44.13
2023-05-07T04:22:53.996Z,41.13
2023-05-07T04:25:20.469Z,42.25
2023-05-07T04:27:46.861Z,42.63
2023-05-07T04:30:14.076Z,42.65
2023-05-07T04:32:40.868Z,44.78
2023-05-07T04:35:08.058Z,41.13
2023-05-07T04:37:34.469Z,42.25
2023-05-07T04:40:01.462Z,41.90
2023-05-07T04:42:27.941Z,43.97
2023-05-07T04:44:54.953Z,42.28
2023-05-07T04:47:21.474Z,44.83
2023-05-07T04:49:47.868Z,43.05
2023-05-07T04:52:14.316Z,43.88
2023-05-07T04:54:40.773Z,42.65
2023-05-07T04:57:07.378Z,41.78
2023-05-07T04:59:34.145Z,41.50
2023-05-07T05:02:00.678Z,41.75
2023-05-07T05:04:27.152Z,42.75
2023-05-07T05:06:53.813Z,41.30
2023-05-07T05:09:20.320Z,41.00
2023-05-07T05:11:46.811Z,39.78
2023-05-07T05:14:13.256Z,40.67
2023-05-07T05:16:39.842Z,43.53
2023-05-07T05:19:06.320Z,40.55
2023-05-07T05:21:32.945Z,40.78
2023-05-07T05:23:59.450Z,42.90
2023-05-07T05:26:25.874Z,38.38
2023-05-07T05:28:52.273Z,37.67
2023-05-07T05:31:18.728Z,34.75
2023-05-07T05:33:45.725Z,38.60
2023-05-07T05:36:13.676Z,37.88
2023-05-07T05:38:41.195Z,33.10
2023-05-07T05:41:07.568Z,34.35
2023-05-07T05:43:33.975Z,36.28
2023-05-07T05:46:01.427Z,35.97
2023-05-07T05:48:28.043Z,35.50
2023-05-07T05:50:54.429Z,33.78
2023-05-07T05:53:20.842Z,36.97
2023-05-07T05:55:47.394Z,37.40
2023-05-07T05:58:13.819Z,32.30
2023-05-07T06:00:40.658Z,32.25
2023-05-07T06:03:07.094Z,31.38
2023-05-07T06:05:33.531Z,35.85
2023-05-07T06:07:59.918Z,29.95
2023-05-07T06:10:27.352Z,30.75
2023-05-07T06:12:53.764Z,31.02
2023-05-07T06:15:20.288Z,28.50
2023-05-07T06:17:46.708Z,28.95
2023-05-07T06:20:13.282Z,27.88
2023-05-07T06:22:39.853Z,28.95
2023-05-07T06:25:06.689Z,27.90
2023-05-07T06:27:33.092Z,29.30
2023-05-07T06:29:59.551Z,28.13
2023-05-07T06:32:26.068Z,27.20
2023-05-07T06:34:52.555Z,28.63
2023-05-07T06:37:18.921Z,27.63
2023-05-07T06:39:45.479Z,28.98
2023-05-07T06:42:11.877Z,26.15
2023-05-07T06:44:38.262Z,26.65
2023-05-07T06:47:04.736Z,25.83
2023-05-07T06:49:31.166Z,25.20
2023-05-07T06:51:57.567Z,25.23
2023-05-07T06:54:24.363Z,27.00
2023-05-07T06:56:50.925Z,23.73
2023-05-07T06:59:17.326Z,23.88
2023-05-07T07:01:43.751Z,23.08
2023-05-07T07:04:10.182Z,24.42
2023-05-07T07:06:36.587Z,25.75
2023-05-07T07:09:03.239Z,23.73
2023-05-07T07:11:29.599Z,23.52
2023-05-07T07:13:56.018Z,22.58
2023-05-07T07:16:22.828Z,23.30
2023-05-07T07:18:49.320Z,23.20
2023-05-07T07:21:15.789Z,24.35
2023-05-07T07:23:42.340Z,24.75
2023-05-07T07:26:08.821Z,27.35
2023-05-07T07:28:35.297Z,22.98
2023-05-07T07:31:01.765Z,22.67
2023-05-07T07:33:28.168Z,23.77
2023-05-07T07:35:56.640Z,22.20
2023-05-07T07:38:23.030Z,24.38
2023-05-07T07:40:49.521Z,21.27
2023-05-07T07:43:15.874Z,22.05
2023-05-07T07:45:42.769Z,22.67
2023-05-07T07:48:09.320Z,21.23
2023-05-07T07:50:44.521Z,20.63
2023-05-07T07:53:11.959Z,18.48
2023-05-07T07:55:41.701Z,20.67
2023-05-07T07:58:08.224Z,21.25
2023-05-07T08:00:34.629Z,19.30
2023-05-07T08:03:01.630Z,17.20
2023-05-07T08:05:28.309Z,18.77
2023-05-07T08:07:54.910Z,18.83
2023-05-07T08:10:22.647Z,15.32
2023-05-07T08:12:50.064Z,16.00
2023-05-07T08:15:16.922Z,15.68
2023-05-07T08:17:43.782Z,16.02
2023-05-07T08:20:10.994Z,15.73
2023-05-07T08:22:37.846Z,16.40
2023-05-07T08:25:04.486Z,13.48
2023-05-07T08:27:30.900Z,18.30
2023-05-07T08:29:57.467Z,13.93
2023-05-07T08:32:23.969Z,13.10
2023-05-07T08:34:50.493Z,14.55
2023-05-07T08:37:16.871Z,14.43
2023-05-07T08:39:43.249Z,13.13
2023-05-07T08:42:10.657Z,13.57
2023-05-07T08:44:39.669Z,12.45
2023-05-07T08:47:07.672Z,12.27
2023-05-07T08:49:34.849Z,11.32
2023-05-07T08:52:01.707Z,11.32
2023-05-07T08:54:28.775Z,12.95
2023-05-07T08:56:55.169Z,10.70
2023-05-07T08:59:21.564Z,11.30
2023-05-07T09:01:48.115Z,9.43
2023-05-07T09:04:14.820Z,9.75
2023-05-07T09:06:42.837Z,9.35
2023-05-07T09:09:09.350Z,9.18
2023-05-07T09:11:35.717Z,10.05
2023-05-07T09:14:03.871Z,9.73
2023-05-07T09:16:31.562Z,9.32
2023-05-07T09:18:59.480Z,9.02
2023-05-07T09:21:26.681Z,9.95
2023-05-07T09:23:54.432Z,9.63
2023-05-07T09:26:25.217Z,9.10
2023-05-07T09:28:51.871Z,8.30
2023-05-07T09:31:20.963Z,9.60
2023-05-07T09:33:47.892Z,8.48
2023-05-07T09:36:14.947Z,8.60
2023-05-07T09:38:41.448Z,8.60
2023-05-07T09:41:12.893Z,7.57
2023-05-07T09:43:40.460Z,8.25
2023-05-07T09:46:14.348Z,9.50
2023-05-07T09:48:44.436Z,8.98
2023-05-07T09:51:23.539Z,8.07
2023-05-07T09:53:51.756Z,7.50
2023-05-07T09:56:18.825Z,7.47
2023-05-07T09:58:46.506Z,8.48
2023-05-07T10:01:14.038Z,8.18
2023-05-07T10:03:44.599Z,7.90
2023-05-07T10:06:11.513Z,7.38
2023-05-07T10:08:38.150Z,7.88
2023-05-07T10:11:07.587Z,7.85
2023-05-07T10:13:38.837Z,7.00
2023-05-07T10:16:06.163Z,8.30
2023-05-07T10:18:34.070Z,6.90
2023-05-07T10:21:08.016Z,7.47
2023-05-07T10:23:34.706Z,6.60
2023-05-07T10:26:04.341Z,7.22
2023-05-07T10:28:35.198Z,7.20
2023-05-07T10:31:32.844Z,8.63
2023-05-07T10:34:00.174Z,9.70
2023-05-07T10:36:27.262Z,10.32
2023-05-07T10:38:53.785Z,8.43
2023-05-07T10:41:22.134Z,8.25
2023-05-07T10:43:48.556Z,9.15
2023-05-07T10:46:19.925Z,7.80
2023-05-07T10:49:11.184Z,6.13
2023-05-07T10:51:38.080Z,8.90
2023-05-07T10:54:10.220Z,10.50
2023-05-07T10:56:39.062Z,7.18
2023-05-07T10:59:32.036Z,9.48
2023-05-07T11:01:59.352Z,9.90
2023-05-07T11:04:28.580Z,9.32
2023-05-07T11:07:07.453Z,10.60
2023-05-07T11:09:51.938Z,8.95
2023-05-07T11:12:36.688Z,8.68
2023-05-07T11:15:14.071Z,7.75
2023-05-07T11:18:00.173Z,8.30
2023-05-07T11:20:58.815Z,9.50
2023-05-07T11:23:54.319Z,7.00
2023-05-07T11:26:20.830Z,7.30
2023-05-07T11:28:47.629Z,5.93
2023-05-07T11:31:14.213Z,5.80
2023-05-07T11:33:40.933Z,8.77
2023-05-07T11:36:09.129Z,6.63
2023-05-07T11:38:38.317Z,7.53
2023-05-07T11:41:06.209Z,5.50
2023-05-07T11:43:33.567Z,4.55
2023-05-07T11:46:13.342Z,5.07
2023-05-07T11:48:39.881Z,5.50
2023-05-07T11:51:07.243Z,5.00
2023-05-07T11:53:38.455Z,6.18
2023-05-07T11:56:15.637Z,5.85
2023-05-07T11:58:42.729Z,6.03
2023-05-07T12:01:10.282Z,6.93
2023-05-07T12:03:40.794Z,7.28
2023-05-07T12:06:07.593Z,5.93
2023-05-07T12:08:34.038Z,6.22
2023-05-07T12:11:00.506Z,6.63
2023-05-07T12:13:27.255Z,6.88
2023-05-07T12:15:54.578Z,7.45
2023-05-07T12:18:22.045Z,7.80
2023-05-07T12:20:49.310Z,9.00
2023-05-07T12:23:16.027Z,6.40
2023-05-07T12:25:49.377Z,7.10
2023-05-07T12:28:17.667Z,7.20
2023-05-07T12:30:45.311Z,7.03
2023-05-07T12:33:12.329Z,7.13
2023-05-07T12:35:40.904Z,7.22
2023-05-07T12:38:15.618Z,6.38
2023-05-07T12:40:46.747Z,6.50
2023-05-07T12:43:26.145Z,5.72
2023-05-07T12:45:54.659Z,6.78
2023-05-07T12:48:21.479Z,6.63
2023-05-07T12:50:51.707Z,6.85
2023-05-07T12:53:18.328Z,6.63
2023-05-07T12:55:49.851Z,6.10
2023-05-07T12:58:33.404Z,6.53
2023-05-07T13:01:01.545Z,6.32
2023-05-07T13:03:30.114Z,5.72
2023-05-07T13:05:59.340Z,6.68
2023-05-07T13:08:37.363Z,4.50
2023-05-07T13:11:04.943Z,6.18
2023-05-07T13:13:33.277Z,5.97
2023-05-07T13:16:01.343Z,6.50
2023-05-07T13:18:28.349Z,5.95
2023-05-07T13:20:54.898Z,6.40
2023-05-07T13:23:21.273Z,6.22
2023-05-07T13:25:48.476Z,6.47
2023-05-07T13:28:15.175Z,6.47
2023-05-07T13:30:41.816Z,5.72
2023-05-07T13:33:08.238Z,5.68
2023-05-07T13:35:34.897Z,7.63
2023-05-07T13:38:01.310Z,7.40
2023-05-07T13:40:27.685Z,7.50
2023-05-07T13:42:54.511Z,7.15
2023-05-07T13:45:21.093Z,7.53
2023-05-07T13:47:48.012Z,7.68
2023-05-07T13:50:14.617Z,7.88
2023-05-07T13:52:46.453Z,8.25
2023-05-07T13:55:13.620Z,9.48
2023-05-07T13:57:40.102Z,8.80
2023-05-07T14:00:07.077Z,9.63
2023-05-07T14:02:33.573Z,7.50
2023-05-07T14:05:00.156Z,7.97
2023-05-07T14:07:26.602Z,8.43
2023-05-07T14:09:52.996Z,7.38
2023-05-07T14:12:19.388Z,8.23
2023-05-07T14:14:46.560Z,7.15
2023-05-07T14:17:13.349Z,6.80
2023-05-07T14:19:39.738Z,7.45
2023-05-07T14:22:06.184Z,7.45
2023-05-07T14:24:38.700Z,7.20
2023-05-07T14:27:05.481Z,6.25
2023-05-07T14:29:31.924Z,6.65
2023-05-07T14:31:58.383Z,7.35
2023-05-07T14:34:24.857Z,6.05
2023-05-07T14:36:51.278Z,5.75
2023-05-07T14:39:17.770Z,6.28
2023-05-07T14:41:44.125Z,5.70
2023-05-07T14:44:10.769Z,6.10
2023-05-07T14:46:37.243Z,5.80
2023-05-07T14:49:03.892Z,5.72
2023-05-07T14:51:30.298Z,6.70
2023-05-07T14:53:56.784Z,5.75
2023-05-07T14:56:23.270Z,5.53
2023-05-07T14:58:50.037Z,5.53
2023-05-07T15:01:16.633Z,9.13
2023-05-07T15:03:43.219Z,7.45
2023-05-07T15:06:09.672Z,6.68
2023-05-07T15:08:36.132Z,7.03
2023-05-07T15:11:02.634Z,5.80
2023-05-07T15:13:29.096Z,5.70
2023-05-07T15:15:55.576Z,5.68
2023-05-07T15:18:22.707Z,5.57
2023-05-07T15:20:49.430Z,5.85
2023-05-07T15:23:16.188Z,6.05
2023-05-07T15:25:42.573Z,5.95
2023-05-07T15:28:08.995Z,6.75
2023-05-07T15:30:35.581Z,6.70
2023-05-07T15:33:02.489Z,6.70
2023-05-07T15:35:28.977Z,8.60
2023-05-07T15:37:55.764Z,8.27
2023-05-07T15:40:22.112Z,7.82
2023-05-07T15:42:48.491Z,6.65
2023-05-07T15:45:14.979Z,7.35
2023-05-07T15:47:41.751Z,7.32
2023-05-07T15:50:08.992Z,6.97
2023-05-07T15:52:35.580Z,7.00
2023-05-07T15:55:03.778Z,7.72
2023-05-07T15:57:30.403Z,8.55
2023-05-07T15:59:57.078Z,6.70
2023-05-07T16:02:23.563Z,7.25
2023-05-07T16:04:50.123Z,6.60
2023-05-07T16:07:16.513Z,7.18
2023-05-07T16:09:42.920Z,7.65
2023-05-07T16:12:09.294Z,8.00
2023-05-07T16:14:35.663Z,7.40
2023-05-07T16:17:02.201Z,7.22
2023-05-07T16:19:29.760Z,7.97
2023-05-07T16:21:56.146Z,7.53
2023-05-07T16:24:22.582Z,7.38
2023-05-07T16:26:49.069Z,7.30
2023-05-07T16:29:15.992Z,8.75
2023-05-07T16:31:42.477Z,8.15
2023-05-07T16:34:08.848Z,8.25
2023-05-07T16:36:35.350Z,8.48
2023-05-07T16:39:01.794Z,8.45
2023-05-07T16:41:28.169Z,11.68
2023-05-07T16:43:54.607Z,8.75
2023-05-07T16:46:21.142Z,8.88
2023-05-07T16:48:47.619Z,8.88
2023-05-07T16:51:13.989Z,9.27
2023-05-07T16:53:40.369Z,10.48
2023-05-07T16:56:06.788Z,9.10
2023-05-07T16:58:36.085Z,8.88
2023-05-07T17:01:02.575Z,8.95
2023-05-07T17:03:29.800Z,8.98
2023-05-07T17:05:56.548Z,9.30
2023-05-07T17:08:22.991Z,8.52
2023-05-07T17:10:49.485Z,8.48
2023-05-07T17:13:15.911Z,10.52
2023-05-07T17:15:43.604Z,9.50
2023-05-07T17:18:10.158Z,8.50
2023-05-07T17:20:36.598Z,9.73
2023-05-07T17:23:03.080Z,9.73
2023-05-07T17:25:32.023Z,10.68
2023-05-07T17:27:58.465Z,9.38
2023-05-07T17:30:26.979Z,9.73
2023-05-07T17:32:54.705Z,11.88
2023-05-07T17:35:21.344Z,11.02
2023-05-07T17:37:52.461Z,10.45
2023-05-07T17:40:20.849Z,12.05
2023-05-07T17:42:47.230Z,10.88
2023-05-07T17:45:13.777Z,16.80
2023-05-07T17:47:40.498Z,11.50
2023-05-07T17:50:11.065Z,11.43
2023-05-07T17:52:38.640Z,10.23
2023-05-07T17:55:08.390Z,10.68
2023-05-07T17:57:37.641Z,10.15
2023-05-07T18:00:05.541Z,10.43
2023-05-07T18:02:32.035Z,10.40
2023-05-07T18:04:58.794Z,10.30
2023-05-07T18:07:25.620Z,10.57
2023-05-07T18:09:51.994Z,11.90
2023-05-07T18:12:18.452Z,12.20
2023-05-07T18:14:44.896Z,11.07
2023-05-07T18:17:11.263Z,11.50
2023-05-07T18:19:37.693Z,12.90
2023-05-07T18:22:04.057Z,11.65
2023-05-07T18:24:30.487Z,12.25
2023-05-07T18:26:56.856Z,12.25
2023-05-07T18:29:23.255Z,13.23
2023-05-07T18:31:49.795Z,11.98
2023-05-07T18:34:16.239Z,12.80
2023-05-07T18:36:42.894Z,12.32
2023-05-07T18:39:09.316Z,12.40
2023-05-07T18:41:35.905Z,12.27
2023-05-07T18:44:02.337Z,12.80
2023-05-07T18:46:29.514Z,14.48
2023-05-07T18:48:55.996Z,13.13
2023-05-07T18:51:22.371Z,13.57
2023-05-07T18:53:48.760Z,13.75
2023-05-07T18:56:15.281Z,14.93
2023-05-07T18:58:41.644Z,14.43
2023-05-07T19:01:08.621Z,13.65
2023-05-07T19:03:35.702Z,15.10
2023-05-07T19:06:02.154Z,14.80
2023-05-07T19:08:28.817Z,14.23
2023-05-07T19:10:56.310Z,14.65
2023-05-07T19:13:25.601Z,14.07
2023-05-07T19:15:52.246Z,14.32
2023-05-07T19:18:18.662Z,13.27
2023-05-07T19:20:45.038Z,13.77
2023-05-07T19:23:12.092Z,14.52
2023-05-07T19:25:38.498Z,13.98
2023-05-07T19:28:04.889Z,13.13
2023-05-07T19:30:31.344Z,14.45
2023-05-07T19:32:59.315Z,14.75
2023-05-07T19:35:25.703Z,14.57
2023-05-07T19:37:52.132Z,14.38
2023-05-07T19:40:18.637Z,14.48
2023-05-07T19:42:45.651Z,13.77
2023-05-07T19:45:14.970Z,14.02
2023-05-07T19:47:41.384Z,14.13
2023-05-07T19:50:08.317Z,13.50
2023-05-07T19:52:34.925Z,13.80
2023-05-07T19:55:01.348Z,13.95
2023-05-07T19:57:27.730Z,13.77
2023-05-07T19:59:54.113Z,14.15
2023-05-07T20:02:20.654Z,13.60
2023-05-07T20:04:47.068Z,13.25
2023-05-07T20:07:13.459Z,14.27
2023-05-07T20:09:39.865Z,13.35
2023-05-07T20:12:06.607Z,13.95
2023-05-07T20:14:33.923Z,13.65
2023-05-07T20:17:00.404Z,13.70
2023-05-07T20:19:26.874Z,14.05
2023-05-07T20:21:53.391Z,14.38
2023-05-07T20:24:20.061Z,13.82
2023-05-07T20:26:46.701Z,13.75
2023-05-07T20:29:13.100Z,14.07
2023-05-07T20:31:39.906Z,14.23
2023-05-07T20:34:07.218Z,13.43
2023-05-07T20:36:33.722Z,13.10
2023-05-07T20:39:00.145Z,13.70
2023-05-07T20:41:26.581Z,14.85
2023-05-07T20:43:52.991Z,13.88
2023-05-07T20:46:22.640Z,13.93
2023-05-07T20:48:49.652Z,12.82
2023-05-07T20:51:16.218Z,13.35
2023-05-07T20:53:44.898Z,13.38
2023-05-07T20:56:13.245Z,13.65
2023-05-07T20:58:39.632Z,13.65
2023-05-07T21:01:06.485Z,14.25
2023-05-07T21:03:32.904Z,13.75
2023-05-07T21:06:00.431Z,13.32
2023-05-07T21:08:27.608Z,14.43
2023-05-07T21:10:54.660Z,15.38
2023-05-07T21:13:23.028Z,14.60
2023-05-07T21:15:49.647Z,13.90
2023-05-07T21:18:16.511Z,13.75
2023-05-07T21:20:42.895Z,14.50
2023-05-07T21:23:09.314Z,14.77
2023-05-07T21:25:39.063Z,14.55
2023-05-07T21:28:07.417Z,14.48
2023-05-07T21:30:33.856Z,14.38
2023-05-07T21:33:00.284Z,15.65
2023-05-07T21:35:26.898Z,15.02
2023-05-07T21:37:53.350Z,15.50
2023-05-07T21:40:19.802Z,14.68
2023-05-07T21:42:46.163Z,15.85
2023-05-07T21:45:12.953Z,15.57
2023-05-07T21:47:39.376Z,14.20
2023-05-07T21:50:06.434Z,15.35
2023-05-07T21:52:32.822Z,14.20
2023-05-07T21:54:59.249Z,15.77
2023-05-07T21:57:26.140Z,14.95
2023-05-07T21:59:52.517Z,15.32
2023-05-07T22:02:18.945Z,15.02
2023-05-07T22:04:45.617Z,14.60
2023-05-07T22:07:12.049Z,14.88
2023-05-07T22:09:38.397Z,14.27
2023-05-07T22:12:04.943Z,14.65
2023-05-07T22:14:31.333Z,14.70
2023-05-07T22:16:57.804Z,14.25
2023-05-07T22:19:24.273Z,14.73
2023-05-07T22:21:50.798Z,14.13
2023-05-07T22:24:17.190Z,15.40
2023-05-07T22:26:44.943Z,14.27
2023-05-07T22:29:11.323Z,14.35
2023-05-07T22:31:37.782Z,15.45
2023-05-07T22:34:04.238Z,15.35
2023-05-07T22:36:30.866Z,16.65
2023-05-07T22:38:57.309Z,15.52
2023-05-07T22:41:24.495Z,14.77
2023-05-07T22:43:50.888Z,15.05
2023-05-07T22:46:17.291Z,15.68
2023-05-07T22:48:44.103Z,14.43
2023-05-07T22:51:14.253Z,15.07
2023-05-07T22:53:40.918Z,14.93
2023-05-07T22:56:07.652Z,15.43
2023-05-07T22:58:34.333Z,14.20
2023-05-07T23:01:00.973Z,13.98
2023-05-07T23:03:28.045Z,14.10
2023-05-07T23:05:54.411Z,14.23
2023-05-07T23:08:20.876Z,14.40
2023-05-07T23:10:47.270Z,14.23
2023-05-07T23:13:17.298Z,13.90
2023-05-07T23:15:43.967Z,13.93
2023-05-07T23:18:10.414Z,13.13
2023-05-07T23:20:36.832Z,14.73
2023-05-07T23:23:03.724Z,14.10
2023-05-07T23:25:30.115Z,13.77
2023-05-07T23:27:56.489Z,12.77
2023-05-07T23:30:22.943Z,13.73
2023-05-07T23:32:49.415Z,13.13
2023-05-07T23:35:15.860Z,15.35
2023-05-07T23:37:42.218Z,13.52
2023-05-07T23:40:08.714Z,13.20
2023-05-07T23:42:35.538Z,13.75
2023-05-07T23:45:02.241Z,13.32
2023-05-07T23:47:28.763Z,13.73
2023-05-07T23:49:55.180Z,13.13
2023-05-07T23:52:21.670Z,13.63
2023-05-07T23:54:48.047Z,13.85
2023-05-07T23:57:16.152Z,13.63
2023-05-07T23:59:42.579Z,14.02
